sensor_id;sensor_type;location;lat;lon;timestamp;P1;durP1;ratioP1;P2;durP2;ratioP2
33501;SDS011;22396;51.070;4.974;2023-09-19T00:01:12;14.30;;;1.80;;
33501;SDS011;22396;51.070;4.974;2023-09-19T00:03:39;10.15;;;1.30;;
33501;SDS011;22396;51.070;4.974;2023-09-19T00:06:06;10.57;;;1.58;;
33501;SDS011;22396;51.070;4.974;2023-09-19T00:08:33;9.48;;;1.42;;
33501;SDS011;22396;51.070;4.974;2023-09-19T00:11:00;11.18;;;1.30;;
33501;SDS011;22396;51.070;4.974;2023-09-19T00:13:27;11.05;;;1.42;;
33501;SDS011;22396;51.070;4.974;2023-09-19T00:15:53;12.60;;;2.15;;
33501;SDS011;22396;51.070;4.974;2023-09-19T00:18:20;13.93;;;1.73;;
33501;SDS011;22396;51.070;4.974;2023-09-19T00:20:55;18.30;;;1.90;;
33501;SDS011;22396;51.070;4.974;2023-09-19T00:23:21;10.55;;;1.55;;
33501;SDS011;22396;51.070;4.974;2023-09-19T00:25:48;12.77;;;1.70;;
33501;SDS011;22396;51.070;4.974;2023-09-19T00:28:15;8.98;;;1.20;;
33501;SDS011;22396;51.070;4.974;2023-09-19T00:30:42;10.18;;;1.65;;
33501;SDS011;22396;51.070;4.974;2023-09-19T00:33:07;12.70;;;2.97;;
33501;SDS011;22396;51.070;4.974;2023-09-19T00:35:33;15.57;;;1.48;;
33501;SDS011;22396;51.070;4.974;2023-09-19T00:37:58;5.35;;;1.00;;
33501;SDS011;22396;51.070;4.974;2023-09-19T00:40:24;8.50;;;1.45;;
33501;SDS011;22396;51.070;4.974;2023-09-19T00:42:50;9.27;;;1.40;;
33501;SDS011;22396;51.070;4.974;2023-09-19T00:45:19;8.98;;;1.15;;
33501;SDS011;22396;51.070;4.974;2023-09-19T00:47:48;7.93;;;1.20;;
33501;SDS011;22396;51.070;4.974;2023-09-19T00:50:15;11.40;;;1.60;;
33501;SDS011;22396;51.070;4.974;2023-09-19T00:52:42;12.32;;;1.58;;
33501;SDS011;22396;51.070;4.974;2023-09-19T00:55:11;16.02;;;1.55;;
33501;SDS011;22396;51.070;4.974;2023-09-19T00:57:39;7.35;;;1.70;;
33501;SDS011;22396;51.070;4.974;2023-09-19T01:00:08;8.80;;;1.60;;
33501;SDS011;22396;51.070;4.974;2023-09-19T01:05:02;8.60;;;1.42;;
33501;SDS011;22396;51.070;4.974;2023-09-19T01:07:30;10.05;;;1.40;;
33501;SDS011;22396;51.070;4.974;2023-09-19T01:10:04;10.77;;;1.50;;
33501;SDS011;22396;51.070;4.974;2023-09-19T01:17:53;7.45;;;1.52;;
33501;SDS011;22396;51.070;4.974;2023-09-19T01:23:14;9.98;;;1.55;;
33501;SDS011;22396;51.070;4.974;2023-09-19T01:25:50;9.00;;;1.58;;
33501;SDS011;22396;51.070;4.974;2023-09-19T01:30:51;9.02;;;1.40;;
33501;SDS011;22396;51.070;4.974;2023-09-19T01:33:19;11.90;;;1.50;;
33501;SDS011;22396;51.070;4.974;2023-09-19T01:35:45;9.20;;;1.10;;
33501;SDS011;22396;51.070;4.974;2023-09-19T01:38:10;10.70;;;1.33;;
33501;SDS011;22396;51.070;4.974;2023-09-19T01:40:43;11.38;;;1.77;;
33501;SDS011;22396;51.070;4.974;2023-09-19T01:43:32;7.90;;;1.52;;
33501;SDS011;22396;51.070;4.974;2023-09-19T01:51:33;7.93;;;1.40;;
33501;SDS011;22396;51.070;4.974;2023-09-19T01:54:09;11.25;;;1.70;;
33501;SDS011;22396;51.070;4.974;2023-09-19T01:56:50;8.35;;;1.20;;
33501;SDS011;22396;51.070;4.974;2023-09-19T01:59:18;16.17;;;2.33;;
33501;SDS011;22396;51.070;4.974;2023-09-19T02:01:46;7.05;;;1.00;;
33501;SDS011;22396;51.070;4.974;2023-09-19T02:04:13;8.68;;;1.52;;
33501;SDS011;22396;51.070;4.974;2023-09-19T02:06:42;8.02;;;1.63;;
33501;SDS011;22396;51.070;4.974;2023-09-19T02:09:07;10.02;;;0.95;;
33501;SDS011;22396;51.070;4.974;2023-09-19T02:11:37;10.30;;;1.40;;
33501;SDS011;22396;51.070;4.974;2023-09-19T02:14:03;10.52;;;1.35;;
33501;SDS011;22396;51.070;4.974;2023-09-19T02:16:29;7.10;;;1.20;;
33501;SDS011;22396;51.070;4.974;2023-09-19T02:18:55;10.52;;;1.10;;
33501;SDS011;22396;51.070;4.974;2023-09-19T02:21:21;9.68;;;1.45;;
33501;SDS011;22396;51.070;4.974;2023-09-19T02:23:46;8.52;;;1.45;;
33501;SDS011;22396;51.070;4.974;2023-09-19T02:26:16;7.78;;;1.33;;
33501;SDS011;22396;51.070;4.974;2023-09-19T02:28:43;10.13;;;1.58;;
33501;SDS011;22396;51.070;4.974;2023-09-19T02:31:10;15.95;;;2.13;;
33501;SDS011;22396;51.070;4.974;2023-09-19T02:33:36;8.40;;;1.50;;
33501;SDS011;22396;51.070;4.974;2023-09-19T02:36:02;6.45;;;1.60;;
33501;SDS011;22396;51.070;4.974;2023-09-19T02:38:30;12.85;;;1.33;;
33501;SDS011;22396;51.070;4.974;2023-09-19T02:40:55;8.45;;;2.03;;
33501;SDS011;22396;51.070;4.974;2023-09-19T02:43:21;8.77;;;1.38;;
33501;SDS011;22396;51.070;4.974;2023-09-19T02:45:46;7.93;;;1.45;;
33501;SDS011;22396;51.070;4.974;2023-09-19T02:48:14;14.07;;;1.38;;
33501;SDS011;22396;51.070;4.974;2023-09-19T02:50:40;9.13;;;1.83;;
33501;SDS011;22396;51.070;4.974;2023-09-19T02:53:09;7.97;;;1.27;;
33501;SDS011;22396;51.070;4.974;2023-09-19T02:55:35;8.40;;;1.48;;
33501;SDS011;22396;51.070;4.974;2023-09-19T02:58:03;10.10;;;1.10;;
33501;SDS011;22396;51.070;4.974;2023-09-19T03:00:30;11.27;;;1.30;;
33501;SDS011;22396;51.070;4.974;2023-09-19T03:02:58;12.65;;;1.50;;
33501;SDS011;22396;51.070;4.974;2023-09-19T03:05:24;11.77;;;1.58;;
33501;SDS011;22396;51.070;4.974;2023-09-19T03:07:51;6.63;;;0.98;;
33501;SDS011;22396;51.070;4.974;2023-09-19T03:10:17;14.80;;;1.85;;
33501;SDS011;22396;51.070;4.974;2023-09-19T03:12:43;7.88;;;1.77;;
33501;SDS011;22396;51.070;4.974;2023-09-19T03:15:09;5.97;;;1.10;;
33501;SDS011;22396;51.070;4.974;2023-09-19T03:17:34;10.88;;;1.73;;
33501;SDS011;22396;51.070;4.974;2023-09-19T03:20:00;14.13;;;1.30;;
33501;SDS011;22396;51.070;4.974;2023-09-19T03:22:26;8.05;;;1.50;;
33501;SDS011;22396;51.070;4.974;2023-09-19T03:24:52;11.68;;;1.73;;
33501;SDS011;22396;51.070;4.974;2023-09-19T03:27:18;13.00;;;2.72;;
33501;SDS011;22396;51.070;4.974;2023-09-19T03:29:46;15.95;;;1.88;;
33501;SDS011;22396;51.070;4.974;2023-09-19T03:32:12;10.95;;;1.73;;
33501;SDS011;22396;51.070;4.974;2023-09-19T03:34:38;9.00;;;1.55;;
33501;SDS011;22396;51.070;4.974;2023-09-19T03:37:10;10.15;;;1.88;;
33501;SDS011;22396;51.070;4.974;2023-09-19T03:39:36;6.68;;;1.10;;
33501;SDS011;22396;51.070;4.974;2023-09-19T03:42:01;11.93;;;1.50;;
33501;SDS011;22396;51.070;4.974;2023-09-19T03:44:29;12.32;;;2.13;;
33501;SDS011;22396;51.070;4.974;2023-09-19T03:46:54;7.65;;;1.50;;
33501;SDS011;22396;51.070;4.974;2023-09-19T03:49:21;13.45;;;1.38;;
33501;SDS011;22396;51.070;4.974;2023-09-19T03:51:47;8.07;;;1.60;;
33501;SDS011;22396;51.070;4.974;2023-09-19T03:54:12;11.93;;;1.80;;
33501;SDS011;22396;51.070;4.974;2023-09-19T03:56:37;6.82;;;1.42;;
33501;SDS011;22396;51.070;4.974;2023-09-19T03:59:03;11.30;;;1.60;;
33501;SDS011;22396;51.070;4.974;2023-09-19T04:01:28;10.43;;;1.42;;
33501;SDS011;22396;51.070;4.974;2023-09-19T04:03:55;20.45;;;2.30;;
33501;SDS011;22396;51.070;4.974;2023-09-19T04:06:21;11.40;;;1.90;;
33501;SDS011;22396;51.070;4.974;2023-09-19T04:08:47;9.90;;;1.17;;
33501;SDS011;22396;51.070;4.974;2023-09-19T04:11:13;11.48;;;1.98;;
33501;SDS011;22396;51.070;4.974;2023-09-19T04:13:38;15.35;;;1.48;;
33501;SDS011;22396;51.070;4.974;2023-09-19T04:16:04;9.48;;;1.40;;
33501;SDS011;22396;51.070;4.974;2023-09-19T04:18:29;8.50;;;1.35;;
33501;SDS011;22396;51.070;4.974;2023-09-19T04:20:57;11.85;;;1.40;;
33501;SDS011;22396;51.070;4.974;2023-09-19T04:23:23;10.48;;;1.48;;
33501;SDS011;22396;51.070;4.974;2023-09-19T04:25:48;11.07;;;1.67;;
33501;SDS011;22396;51.070;4.974;2023-09-19T04:28:14;8.77;;;1.63;;
33501;SDS011;22396;51.070;4.974;2023-09-19T04:30:40;9.20;;;1.27;;
33501;SDS011;22396;51.070;4.974;2023-09-19T04:33:06;15.52;;;1.73;;
33501;SDS011;22396;51.070;4.974;2023-09-19T04:35:31;18.95;;;2.30;;
33501;SDS011;22396;51.070;4.974;2023-09-19T04:37:57;13.27;;;1.45;;
33501;SDS011;22396;51.070;4.974;2023-09-19T04:40:22;14.13;;;1.63;;
33501;SDS011;22396;51.070;4.974;2023-09-19T04:42:56;11.70;;;1.20;;
33501;SDS011;22396;51.070;4.974;2023-09-19T04:45:22;10.88;;;1.73;;
33501;SDS011;22396;51.070;4.974;2023-09-19T04:47:47;8.23;;;1.60;;
33501;SDS011;22396;51.070;4.974;2023-09-19T04:50:13;9.70;;;1.55;;
33501;SDS011;22396;51.070;4.974;2023-09-19T04:52:42;9.73;;;2.15;;
33501;SDS011;22396;51.070;4.974;2023-09-19T04:55:08;19.15;;;2.17;;
33501;SDS011;22396;51.070;4.974;2023-09-19T04:57:34;13.73;;;1.90;;
33501;SDS011;22396;51.070;4.974;2023-09-19T05:00:01;13.43;;;2.25;;
33501;SDS011;22396;51.070;4.974;2023-09-19T05:02:29;10.98;;;1.65;;
33501;SDS011;22396;51.070;4.974;2023-09-19T05:04:56;6.07;;;1.35;;
33501;SDS011;22396;51.070;4.974;2023-09-19T05:07:24;10.00;;;1.52;;
33501;SDS011;22396;51.070;4.974;2023-09-19T05:09:51;15.75;;;1.30;;
33501;SDS011;22396;51.070;4.974;2023-09-19T05:12:16;12.80;;;1.83;;
33501;SDS011;22396;51.070;4.974;2023-09-19T05:14:44;12.10;;;1.60;;
33501;SDS011;22396;51.070;4.974;2023-09-19T05:17:10;7.72;;;1.20;;
33501;SDS011;22396;51.070;4.974;2023-09-19T05:19:38;4.47;;;1.00;;
33501;SDS011;22396;51.070;4.974;2023-09-19T05:22:03;9.95;;;1.42;;
33501;SDS011;22396;51.070;4.974;2023-09-19T05:24:29;15.13;;;1.92;;
33501;SDS011;22396;51.070;4.974;2023-09-19T05:26:55;9.55;;;1.48;;
33501;SDS011;22396;51.070;4.974;2023-09-19T05:29:21;10.57;;;1.70;;
33501;SDS011;22396;51.070;4.974;2023-09-19T05:31:47;8.57;;;1.50;;
33501;SDS011;22396;51.070;4.974;2023-09-19T05:34:15;15.60;;;2.10;;
33501;SDS011;22396;51.070;4.974;2023-09-19T05:36:40;11.43;;;1.90;;
33501;SDS011;22396;51.070;4.974;2023-09-19T05:39:05;11.25;;;1.73;;
33501;SDS011;22396;51.070;4.974;2023-09-19T05:41:36;12.52;;;1.77;;
33501;SDS011;22396;51.070;4.974;2023-09-19T05:44:04;8.98;;;1.27;;
33501;SDS011;22396;51.070;4.974;2023-09-19T05:46:32;11.70;;;1.38;;
33501;SDS011;22396;51.070;4.974;2023-09-19T05:48:57;11.18;;;2.03;;
33501;SDS011;22396;51.070;4.974;2023-09-19T05:51:22;10.85;;;1.73;;
33501;SDS011;22396;51.070;4.974;2023-09-19T05:53:48;8.93;;;1.33;;
33501;SDS011;22396;51.070;4.974;2023-09-19T05:56:14;17.67;;;1.35;;
33501;SDS011;22396;51.070;4.974;2023-09-19T05:58:42;15.10;;;1.48;;
33501;SDS011;22396;51.070;4.974;2023-09-19T06:01:09;14.93;;;1.73;;
33501;SDS011;22396;51.070;4.974;2023-09-19T06:03:34;16.90;;;2.90;;
33501;SDS011;22396;51.070;4.974;2023-09-19T06:06:01;8.20;;;1.30;;
33501;SDS011;22396;51.070;4.974;2023-09-19T06:08:26;10.05;;;1.95;;
33501;SDS011;22396;51.070;4.974;2023-09-19T06:10:53;12.00;;;2.58;;
33501;SDS011;22396;51.070;4.974;2023-09-19T06:13:18;12.77;;;1.67;;
33501;SDS011;22396;51.070;4.974;2023-09-19T06:15:44;7.32;;;1.60;;
33501;SDS011;22396;51.070;4.974;2023-09-19T06:18:11;12.05;;;1.85;;
33501;SDS011;22396;51.070;4.974;2023-09-19T06:20:42;11.15;;;1.60;;
33501;SDS011;22396;51.070;4.974;2023-09-19T06:23:10;7.55;;;1.50;;
33501;SDS011;22396;51.070;4.974;2023-09-19T06:25:36;10.20;;;1.40;;
33501;SDS011;22396;51.070;4.974;2023-09-19T06:28:01;7.28;;;1.65;;
33501;SDS011;22396;51.070;4.974;2023-09-19T06:30:30;10.82;;;1.83;;
33501;SDS011;22396;51.070;4.974;2023-09-19T06:32:59;10.82;;;2.47;;
33501;SDS011;22396;51.070;4.974;2023-09-19T06:35:25;7.13;;;1.40;;
33501;SDS011;22396;51.070;4.974;2023-09-19T06:37:51;11.65;;;1.70;;
33501;SDS011;22396;51.070;4.974;2023-09-19T06:40:17;14.52;;;1.85;;
33501;SDS011;22396;51.070;4.974;2023-09-19T06:42:46;7.35;;;1.17;;
33501;SDS011;22396;51.070;4.974;2023-09-19T06:45:12;10.20;;;1.75;;
33501;SDS011;22396;51.070;4.974;2023-09-19T06:47:41;10.48;;;1.55;;
33501;SDS011;22396;51.070;4.974;2023-09-19T06:50:07;9.45;;;1.67;;
33501;SDS011;22396;51.070;4.974;2023-09-19T06:52:38;12.18;;;1.67;;
33501;SDS011;22396;51.070;4.974;2023-09-19T06:55:03;17.15;;;1.83;;
33501;SDS011;22396;51.070;4.974;2023-09-19T06:57:30;5.38;;;1.08;;
33501;SDS011;22396;51.070;4.974;2023-09-19T06:59:56;11.05;;;1.50;;
33501;SDS011;22396;51.070;4.974;2023-09-19T07:02:21;20.67;;;1.98;;
33501;SDS011;22396;51.070;4.974;2023-09-19T07:04:47;8.40;;;1.38;;
33501;SDS011;22396;51.070;4.974;2023-09-19T07:07:12;9.38;;;1.70;;
33501;SDS011;22396;51.070;4.974;2023-09-19T07:09:38;11.68;;;1.42;;
33501;SDS011;22396;51.070;4.974;2023-09-19T07:12:04;10.93;;;1.88;;
33501;SDS011;22396;51.070;4.974;2023-09-19T07:14:29;15.75;;;1.65;;
33501;SDS011;22396;51.070;4.974;2023-09-19T07:16:55;9.95;;;1.50;;
33501;SDS011;22396;51.070;4.974;2023-09-19T07:19:20;15.20;;;2.45;;
33501;SDS011;22396;51.070;4.974;2023-09-19T07:21:46;10.60;;;1.25;;
33501;SDS011;22396;51.070;4.974;2023-09-19T07:24:15;11.57;;;1.75;;
33501;SDS011;22396;51.070;4.974;2023-09-19T07:26:41;14.07;;;1.83;;
33501;SDS011;22396;51.070;4.974;2023-09-19T07:29:08;13.13;;;1.70;;
33501;SDS011;22396;51.070;4.974;2023-09-19T07:31:36;17.45;;;1.83;;
33501;SDS011;22396;51.070;4.974;2023-09-19T07:34:02;14.30;;;2.15;;
33501;SDS011;22396;51.070;4.974;2023-09-19T07:36:30;9.70;;;1.13;;
33501;SDS011;22396;51.070;4.974;2023-09-19T07:38:57;6.55;;;1.10;;
33501;SDS011;22396;51.070;4.974;2023-09-19T07:41:23;9.35;;;1.23;;
33501;SDS011;22396;51.070;4.974;2023-09-19T07:43:48;8.48;;;1.23;;
33501;SDS011;22396;51.070;4.974;2023-09-19T07:46:14;6.65;;;1.30;;
33501;SDS011;22396;51.070;4.974;2023-09-19T07:48:39;10.98;;;1.50;;
33501;SDS011;22396;51.070;4.974;2023-09-19T07:51:06;9.57;;;1.50;;
33501;SDS011;22396;51.070;4.974;2023-09-19T07:53:32;8.73;;;1.30;;
33501;SDS011;22396;51.070;4.974;2023-09-19T07:56:06;11.00;;;1.52;;
33501;SDS011;22396;51.070;4.974;2023-09-19T07:58:32;9.15;;;1.33;;
33501;SDS011;22396;51.070;4.974;2023-09-19T08:01:08;8.90;;;1.85;;
33501;SDS011;22396;51.070;4.974;2023-09-19T08:03:34;12.52;;;1.40;;
33501;SDS011;22396;51.070;4.974;2023-09-19T08:06:00;9.85;;;1.80;;
33501;SDS011;22396;51.070;4.974;2023-09-19T08:08:26;11.07;;;2.10;;
33501;SDS011;22396;51.070;4.974;2023-09-19T08:10:57;16.20;;;2.10;;
33501;SDS011;22396;51.070;4.974;2023-09-19T08:13:25;11.35;;;1.67;;
33501;SDS011;22396;51.070;4.974;2023-09-19T08:15:51;8.73;;;1.67;;
33501;SDS011;22396;51.070;4.974;2023-09-19T08:18:20;7.63;;;1.48;;
33501;SDS011;22396;51.070;4.974;2023-09-19T08:20:49;7.35;;;1.52;;
33501;SDS011;22396;51.070;4.974;2023-09-19T08:23:15;16.63;;;1.40;;
33501;SDS011;22396;51.070;4.974;2023-09-19T08:25:43;8.27;;;1.50;;
33501;SDS011;22396;51.070;4.974;2023-09-19T08:28:08;15.63;;;1.85;;
33501;SDS011;22396;51.070;4.974;2023-09-19T08:30:36;8.60;;;1.17;;
33501;SDS011;22396;51.070;4.974;2023-09-19T08:33:02;10.05;;;1.67;;
33501;SDS011;22396;51.070;4.974;2023-09-19T08:35:29;10.38;;;1.75;;
33501;SDS011;22396;51.070;4.974;2023-09-19T08:37:55;11.18;;;1.60;;
33501;SDS011;22396;51.070;4.974;2023-09-19T08:40:21;9.50;;;1.60;;
33501;SDS011;22396;51.070;4.974;2023-09-19T08:42:47;12.68;;;1.77;;
33501;SDS011;22396;51.070;4.974;2023-09-19T08:45:12;9.20;;;1.45;;
33501;SDS011;22396;51.070;4.974;2023-09-19T08:47:40;7.97;;;1.52;;
33501;SDS011;22396;51.070;4.974;2023-09-19T08:50:13;11.57;;;1.70;;
33501;SDS011;22396;51.070;4.974;2023-09-19T08:55:06;13.13;;;1.80;;
33501;SDS011;22396;51.070;4.974;2023-09-19T08:57:37;7.95;;;1.30;;
33501;SDS011;22396;51.070;4.974;2023-09-19T09:00:07;8.27;;;1.50;;
33501;SDS011;22396;51.070;4.974;2023-09-19T09:02:37;15.63;;;1.80;;
33501;SDS011;22396;51.070;4.974;2023-09-19T09:05:04;8.48;;;1.42;;
33501;SDS011;22396;51.070;4.974;2023-09-19T09:07:31;11.10;;;1.35;;
33501;SDS011;22396;51.070;4.974;2023-09-19T09:10:02;16.40;;;1.77;;
33501;SDS011;22396;51.070;4.974;2023-09-19T09:12:27;9.45;;;1.50;;
33501;SDS011;22396;51.070;4.974;2023-09-19T09:14:54;13.80;;;1.42;;
33501;SDS011;22396;51.070;4.974;2023-09-19T09:17:22;10.45;;;1.30;;
33501;SDS011;22396;51.070;4.974;2023-09-19T09:19:48;7.28;;;1.40;;
33501;SDS011;22396;51.070;4.974;2023-09-19T09:22:13;7.00;;;1.63;;
33501;SDS011;22396;51.070;4.974;2023-09-19T09:24:54;11.77;;;1.52;;
33501;SDS011;22396;51.070;4.974;2023-09-19T09:27:20;8.98;;;1.92;;
33501;SDS011;22396;51.070;4.974;2023-09-19T09:29:48;8.18;;;1.27;;
33501;SDS011;22396;51.070;4.974;2023-09-19T09:32:23;10.93;;;1.42;;
33501;SDS011;22396;51.070;4.974;2023-09-19T09:34:59;7.10;;;1.30;;
33501;SDS011;22396;51.070;4.974;2023-09-19T09:37:25;7.35;;;1.55;;
33501;SDS011;22396;51.070;4.974;2023-09-19T09:39:55;6.25;;;1.02;;
33501;SDS011;22396;51.070;4.974;2023-09-19T09:42:37;11.43;;;1.30;;
33501;SDS011;22396;51.070;4.974;2023-09-19T09:47:56;10.50;;;1.75;;
33501;SDS011;22396;51.070;4.974;2023-09-19T09:50:29;9.13;;;1.92;;
33501;SDS011;22396;51.070;4.974;2023-09-19T09:53:01;9.60;;;1.70;;
33501;SDS011;22396;51.070;4.974;2023-09-19T09:55:56;11.85;;;1.35;;
33501;SDS011;22396;51.070;4.974;2023-09-19T09:58:19;13.45;;;1.25;;
33501;SDS011;22396;51.070;4.974;2023-09-19T10:00:53;8.65;;;1.50;;
33501;SDS011;22396;51.070;4.974;2023-09-19T10:03:35;7.40;;;1.70;;
33501;SDS011;22396;51.070;4.974;2023-09-19T10:06:04;10.90;;;1.50;;
33501;SDS011;22396;51.070;4.974;2023-09-19T10:08:57;10.18;;;1.77;;
33501;SDS011;22396;51.070;4.974;2023-09-19T10:11:27;10.07;;;1.25;;
33501;SDS011;22396;51.070;4.974;2023-09-19T10:13:55;11.00;;;1.30;;
33501;SDS011;22396;51.070;4.974;2023-09-19T10:16:20;8.35;;;1.23;;
33501;SDS011;22396;51.070;4.974;2023-09-19T10:18:48;11.60;;;1.23;;
33501;SDS011;22396;51.070;4.974;2023-09-19T10:21:20;5.57;;;1.20;;
33501;SDS011;22396;51.070;4.974;2023-09-19T10:23:48;12.15;;;1.45;;
33501;SDS011;22396;51.070;4.974;2023-09-19T10:26:17;9.68;;;1.10;;
33501;SDS011;22396;51.070;4.974;2023-09-19T10:28:43;12.13;;;1.77;;
33501;SDS011;22396;51.070;4.974;2023-09-19T10:31:13;9.02;;;1.42;;
33501;SDS011;22396;51.070;4.974;2023-09-19T10:33:39;8.55;;;1.50;;
33501;SDS011;22396;51.070;4.974;2023-09-19T10:36:06;10.45;;;1.63;;
33501;SDS011;22396;51.070;4.974;2023-09-19T10:38:33;6.63;;;1.20;;
33501;SDS011;22396;51.070;4.974;2023-09-19T10:41:00;7.93;;;1.08;;
33501;SDS011;22396;51.070;4.974;2023-09-19T10:43:31;5.40;;;1.15;;
33501;SDS011;22396;51.070;4.974;2023-09-19T10:46:00;5.75;;;1.00;;
33501;SDS011;22396;51.070;4.974;2023-09-19T10:48:26;8.75;;;1.00;;
33501;SDS011;22396;51.070;4.974;2023-09-19T10:51:12;7.28;;;1.00;;
33501;SDS011;22396;51.070;4.974;2023-09-19T10:53:50;2.80;;;0.77;;
33501;SDS011;22396;51.070;4.974;2023-09-19T10:56:18;7.15;;;1.10;;
33501;SDS011;22396;51.070;4.974;2023-09-19T10:58:44;7.55;;;1.08;;
33501;SDS011;22396;51.070;4.974;2023-09-19T11:01:10;4.63;;;0.98;;
33501;SDS011;22396;51.070;4.974;2023-09-19T11:03:40;4.78;;;0.90;;
33501;SDS011;22396;51.070;4.974;2023-09-19T11:06:09;3.17;;;0.98;;
33501;SDS011;22396;51.070;4.974;2023-09-19T11:08:51;5.95;;;0.98;;
33501;SDS011;22396;51.070;4.974;2023-09-19T11:11:40;6.43;;;0.65;;
33501;SDS011;22396;51.070;4.974;2023-09-19T11:14:14;7.50;;;0.98;;
33501;SDS011;22396;51.070;4.974;2023-09-19T11:19:57;7.28;;;0.60;;
33501;SDS011;22396;51.070;4.974;2023-09-19T11:22:13;5.72;;;0.93;;
33501;SDS011;22396;51.070;4.974;2023-09-19T11:24:38;3.95;;;0.70;;
33501;SDS011;22396;51.070;4.974;2023-09-19T11:27:11;5.30;;;1.10;;
33501;SDS011;22396;51.070;4.974;2023-09-19T11:29:39;4.68;;;1.20;;
33501;SDS011;22396;51.070;4.974;2023-09-19T11:32:05;10.25;;;1.00;;
33501;SDS011;22396;51.070;4.974;2023-09-19T11:37:17;4.78;;;0.65;;
33501;SDS011;22396;51.070;4.974;2023-09-19T11:40:07;2.35;;;0.55;;
33501;SDS011;22396;51.070;4.974;2023-09-19T11:42:45;10.10;;;1.00;;
33501;SDS011;22396;51.070;4.974;2023-09-19T11:48:02;4.05;;;0.77;;
33501;SDS011;22396;51.070;4.974;2023-09-19T11:50:30;3.50;;;0.77;;
33501;SDS011;22396;51.070;4.974;2023-09-19T11:52:57;3.05;;;0.73;;
33501;SDS011;22396;51.070;4.974;2023-09-19T11:55:23;6.82;;;1.00;;
33501;SDS011;22396;51.070;4.974;2023-09-19T11:57:50;5.38;;;0.93;;
33501;SDS011;22396;51.070;4.974;2023-09-19T12:00:19;10.00;;;0.60;;
33501;SDS011;22396;51.070;4.974;2023-09-19T12:02:46;5.20;;;0.63;;
33501;SDS011;22396;51.070;4.974;2023-09-19T12:05:12;5.68;;;0.90;;
33501;SDS011;22396;51.070;4.974;2023-09-19T12:07:44;7.03;;;0.82;;
33501;SDS011;22396;51.070;4.974;2023-09-19T12:10:11;7.68;;;0.90;;
33501;SDS011;22396;51.070;4.974;2023-09-19T12:12:37;5.88;;;0.70;;
33501;SDS011;22396;51.070;4.974;2023-09-19T12:15:02;4.20;;;0.80;;
33501;SDS011;22396;51.070;4.974;2023-09-19T12:17:35;6.70;;;0.88;;
33501;SDS011;22396;51.070;4.974;2023-09-19T12:22:38;3.83;;;0.63;;
33501;SDS011;22396;51.070;4.974;2023-09-19T12:25:07;3.60;;;0.70;;
33501;SDS011;22396;51.070;4.974;2023-09-19T12:27:42;2.90;;;0.70;;
33501;SDS011;22396;51.070;4.974;2023-09-19T12:30:09;3.28;;;0.65;;
33501;SDS011;22396;51.070;4.974;2023-09-19T12:32:35;2.97;;;0.60;;
33501;SDS011;22396;51.070;4.974;2023-09-19T12:35:00;5.05;;;0.70;;
33501;SDS011;22396;51.070;4.974;2023-09-19T12:37:32;4.65;;;0.77;;
33501;SDS011;22396;51.070;4.974;2023-09-19T12:40:05;2.95;;;0.60;;
33501;SDS011;22396;51.070;4.974;2023-09-19T12:42:40;8.43;;;0.70;;
33501;SDS011;22396;51.070;4.974;2023-09-19T12:45:06;3.80;;;1.23;;
33501;SDS011;22396;51.070;4.974;2023-09-19T12:47:34;1.65;;;0.40;;
33501;SDS011;22396;51.070;4.974;2023-09-19T12:52:37;3.25;;;0.60;;
33501;SDS011;22396;51.070;4.974;2023-09-19T12:55:03;3.38;;;0.50;;
33501;SDS011;22396;51.070;4.974;2023-09-19T12:57:30;3.78;;;0.85;;
33501;SDS011;22396;51.070;4.974;2023-09-19T12:59:59;4.15;;;0.98;;
33501;SDS011;22396;51.070;4.974;2023-09-19T13:02:25;4.90;;;1.08;;
33501;SDS011;22396;51.070;4.974;2023-09-19T13:04:54;4.93;;;0.80;;
33501;SDS011;22396;51.070;4.974;2023-09-19T13:10:03;4.80;;;0.57;;
33501;SDS011;22396;51.070;4.974;2023-09-19T13:12:36;2.70;;;0.70;;
33501;SDS011;22396;51.070;4.974;2023-09-19T13:15:09;2.88;;;0.60;;
33501;SDS011;22396;51.070;4.974;2023-09-19T13:17:45;3.22;;;0.60;;
33501;SDS011;22396;51.070;4.974;2023-09-19T13:20:21;8.88;;;0.70;;
33501;SDS011;22396;51.070;4.974;2023-09-19T13:22:49;4.15;;;0.50;;
33501;SDS011;22396;51.070;4.974;2023-09-19T13:25:18;5.35;;;0.80;;
33501;SDS011;22396;51.070;4.974;2023-09-19T13:27:54;1.75;;;0.70;;
33501;SDS011;22396;51.070;4.974;2023-09-19T13:30:21;2.22;;;0.60;;
33501;SDS011;22396;51.070;4.974;2023-09-19T13:32:47;1.80;;;0.50;;
33501;SDS011;22396;51.070;4.974;2023-09-19T13:35:13;4.20;;;0.68;;
33501;SDS011;22396;51.070;4.974;2023-09-19T13:37:39;4.60;;;0.50;;
33501;SDS011;22396;51.070;4.974;2023-09-19T13:42:33;3.97;;;0.50;;
33501;SDS011;22396;51.070;4.974;2023-09-19T13:44:59;2.78;;;0.40;;
33501;SDS011;22396;51.070;4.974;2023-09-19T13:47:25;2.95;;;0.47;;
33501;SDS011;22396;51.070;4.974;2023-09-19T13:49:51;3.63;;;0.57;;
33501;SDS011;22396;51.070;4.974;2023-09-19T13:52:21;2.85;;;0.73;;
33501;SDS011;22396;51.070;4.974;2023-09-19T13:54:48;1.85;;;0.55;;
33501;SDS011;22396;51.070;4.974;2023-09-19T13:57:13;2.92;;;0.63;;
33501;SDS011;22396;51.070;4.974;2023-09-19T13:59:39;3.58;;;0.70;;
33501;SDS011;22396;51.070;4.974;2023-09-19T14:02:04;2.22;;;0.55;;
33501;SDS011;22396;51.070;4.974;2023-09-19T14:04:32;10.88;;;0.50;;
33501;SDS011;22396;51.070;4.974;2023-09-19T14:06:59;3.67;;;0.88;;
33501;SDS011;22396;51.070;4.974;2023-09-19T14:09:25;1.63;;;0.50;;
33501;SDS011;22396;51.070;4.974;2023-09-19T14:11:51;7.47;;;1.45;;
33501;SDS011;22396;51.070;4.974;2023-09-19T14:14:18;5.05;;;0.50;;
33501;SDS011;22396;51.070;4.974;2023-09-19T14:16:43;3.40;;;0.47;;
33501;SDS011;22396;51.070;4.974;2023-09-19T14:19:09;4.88;;;0.60;;
33501;SDS011;22396;51.070;4.974;2023-09-19T14:21:34;4.47;;;0.60;;
33501;SDS011;22396;51.070;4.974;2023-09-19T14:24:02;5.07;;;0.60;;
33501;SDS011;22396;51.070;4.974;2023-09-19T14:26:27;5.35;;;1.00;;
33501;SDS011;22396;51.070;4.974;2023-09-19T14:28:52;1.75;;;0.50;;
33501;SDS011;22396;51.070;4.974;2023-09-19T14:31:18;5.22;;;0.80;;
33501;SDS011;22396;51.070;4.974;2023-09-19T14:33:43;2.38;;;0.65;;
33501;SDS011;22396;51.070;4.974;2023-09-19T14:36:11;3.40;;;0.60;;
33501;SDS011;22396;51.070;4.974;2023-09-19T14:38:38;4.07;;;0.63;;
33501;SDS011;22396;51.070;4.974;2023-09-19T14:41:06;1.83;;;0.77;;
33501;SDS011;22396;51.070;4.974;2023-09-19T14:43:35;5.80;;;0.85;;
33501;SDS011;22396;51.070;4.974;2023-09-19T14:46:10;4.10;;;0.60;;
33501;SDS011;22396;51.070;4.974;2023-09-19T14:48:36;2.38;;;0.70;;
33501;SDS011;22396;51.070;4.974;2023-09-19T14:51:05;3.90;;;0.70;;
33501;SDS011;22396;51.070;4.974;2023-09-19T14:53:31;3.15;;;0.60;;
33501;SDS011;22396;51.070;4.974;2023-09-19T14:56:00;3.58;;;0.70;;
33501;SDS011;22396;51.070;4.974;2023-09-19T14:58:31;3.45;;;0.47;;
33501;SDS011;22396;51.070;4.974;2023-09-19T15:01:06;3.58;;;0.70;;
33501;SDS011;22396;51.070;4.974;2023-09-19T15:03:32;5.05;;;0.75;;
33501;SDS011;22396;51.070;4.974;2023-09-19T15:06:03;4.57;;;0.70;;
33501;SDS011;22396;51.070;4.974;2023-09-19T15:08:32;2.20;;;0.68;;
33501;SDS011;22396;51.070;4.974;2023-09-19T15:10:59;3.63;;;0.70;;
33501;SDS011;22396;51.070;4.974;2023-09-19T15:13:31;3.60;;;0.65;;
33501;SDS011;22396;51.070;4.974;2023-09-19T15:16:01;4.25;;;0.77;;
33501;SDS011;22396;51.070;4.974;2023-09-19T15:18:36;6.85;;;0.60;;
33501;SDS011;22396;51.070;4.974;2023-09-19T15:21:12;6.03;;;0.90;;
33501;SDS011;22396;51.070;4.974;2023-09-19T15:23:39;5.32;;;0.95;;
33501;SDS011;22396;51.070;4.974;2023-09-19T15:26:07;4.13;;;1.08;;
33501;SDS011;22396;51.070;4.974;2023-09-19T15:28:39;3.25;;;0.85;;
33501;SDS011;22396;51.070;4.974;2023-09-19T15:31:05;4.57;;;0.80;;